This is the latest recevied weather packets stored in our database for station/object K7EK. If no packets are shown the sender has not sent any weather packets the latest 10 day(s).
| Time | Temp. | Humidity | Pressure | Rain* | Wind** | Luminosity | Snow |
|---|---|---|---|---|---|---|---|
| 1777643150 | 13.33° C | 71% | 1013.5 hPa | 0 mm | - | - | - |
| 1777641359 | 11.67° C | 66% | 1013.5 hPa | 0 mm | - | - | - |
| 1777640453 | 11.67° C | 67% | 1013.6 hPa | 0 mm | - | - | - |
| 1777639548 | 10.56° C | 70% | 1013.4 hPa | 0 mm | - | - | - |
| 1777638650 | 9.44° C | 72% | 1013.3 hPa | 0 mm | - | - | - |
| 1777635047 | 5.56° C | 88% | 1013 hPa | 0 mm | - | - | - |
| 1777627844 | 4.44° C | 91% | 1013.1 hPa | 0 mm | - | - | - |
| 1777626949 | 3.89° C | 91% | 1013.3 hPa | 0 mm | - | - | - |
| 1777622446 | 5° C | 88% | 1013.9 hPa | 0 mm | - | - | - |
| 1777620670 | 5.56° C | 86% | 1014.2 hPa | 0 mm | - | - | - |
| 1777617952 | 5.56° C | 86% | 1014.4 hPa | 0 mm | - | - | - |
| 1777594546 | 15° C | 48% | 1014.6 hPa | 0 mm | - | - | - |
| 1777593652 | 15.56° C | 44% | 1014.5 hPa | 0 mm | - | - | - |
| 1777589150 | 17.22° C | 40% | 1014.7 hPa | 0 mm | - | - | - |
| 1777582851 | 17.22° C | 39% | 1014.9 hPa | 0 mm | - | - | - |
| 1777578350 | 16.67° C | 39% | 1015.5 hPa | 0 mm | - | - | - |
| 1777574746 | 16.67° C | 42% | 1016.3 hPa | 0 mm | - | - | - |
| 1777572942 | 16.11° C | 44% | 1016.3 hPa | 0 mm | - | - | - |
| 1777569347 | 15.56° C | 48% | 1017.1 hPa | 0 mm | - | - | - |
| 1777567542 | 14.44° C | 47% | 1017.1 hPa | 0 mm | - | - | - |
| 1777564848 | 13.33° C | 51% | 1017 hPa | 0 mm | - | - | - |
| 1777562149 | 13.33° C | 56% | 1017.2 hPa | 0 mm | - | - | - |
| 1777560355 | 12.78° C | 61% | 1017.3 hPa | 0 mm | - | - | - |
| 1777558551 | 12.22° C | 64% | 1017 hPa | 0 mm | - | - | - |
| 1777554054 | 10° C | 73% | 1016.9 hPa | 0 mm | - | - | - |
* Rain latest hour (hover to see other rain measurements)
** Current wind speed in m/s (hover to see current wind gust speed)